createdAt,value
2023-07-03T00:02:05.162Z,67.19
2023-07-03T00:04:33.930Z,68.96
2023-07-03T00:07:01.778Z,68.59
2023-07-03T00:09:30.787Z,69.04
2023-07-03T00:11:58.720Z,69.57
2023-07-03T00:14:26.120Z,69.54
2023-07-03T00:16:53.994Z,72.41
2023-07-03T00:19:21.769Z,72.55
2023-07-03T00:21:49.657Z,71.77
2023-07-03T00:24:17.152Z,71.02
2023-07-03T00:26:46.437Z,73.35
2023-07-03T00:29:14.035Z,73.36
2023-07-03T00:31:41.923Z,74.19
2023-07-03T00:34:09.403Z,74.25
2023-07-03T00:36:37.328Z,73.61
2023-07-03T00:39:04.816Z,73.69
2023-07-03T00:41:32.635Z,72.61
2023-07-03T00:44:01.673Z,71.51
2023-07-03T00:46:29.901Z,72.18
2023-07-03T00:48:57.634Z,72.04
2023-07-03T00:51:25.873Z,72.89
2023-07-03T00:53:53.325Z,72.75
2023-07-03T00:56:21.176Z,72.65
2023-07-03T00:58:48.655Z,72.66
2023-07-03T01:01:26.653Z,73.10
2023-07-03T01:04:01.357Z,72.55
2023-07-03T01:06:37.728Z,72.35
2023-07-03T01:09:05.535Z,72.41
2023-07-03T01:11:33.686Z,72.29
2023-07-03T01:14:03.204Z,72.54
2023-07-03T01:16:34.899Z,73.49
2023-07-03T01:19:03.326Z,73.40
2023-07-03T01:21:42.901Z,73.06
2023-07-03T01:24:15.527Z,72.72
2023-07-03T01:26:47.303Z,73.05
2023-07-03T01:29:16.385Z,72.24
2023-07-03T01:31:45.055Z,72.19
2023-07-03T01:34:13.568Z,72.14
2023-07-03T01:36:42.597Z,72.63
2023-07-03T01:39:10.199Z,72.13
2023-07-03T01:41:39.125Z,71.82
2023-07-03T01:44:08.034Z,72.15
2023-07-03T01:46:35.826Z,71.57
2023-07-03T01:49:03.413Z,73.27
2023-07-03T01:51:38.645Z,72.82
2023-07-03T01:54:12.919Z,72.96
2023-07-03T01:56:45.544Z,72.98
2023-07-03T01:59:17.122Z,72.41
2023-07-03T02:01:50.739Z,71.67
2023-07-03T02:04:25.285Z,71.48
2023-07-03T02:06:54.698Z,72.33
2023-07-03T02:09:22.753Z,72.30
2023-07-03T02:11:52.835Z,71.78
2023-07-03T02:14:21.708Z,72.07
2023-07-03T02:16:49.492Z,72.82
2023-07-03T02:19:17.156Z,73.07
2023-07-03T02:21:45.199Z,72.74
2023-07-03T02:24:12.840Z,73.51
2023-07-03T02:26:40.850Z,72.88
2023-07-03T02:29:08.393Z,73.02
2023-07-03T02:31:37.724Z,73.20
2023-07-03T02:34:05.359Z,73.77
2023-07-03T02:36:34.870Z,74.69
2023-07-03T02:39:02.692Z,75.78
2023-07-03T02:41:30.448Z,75.62
2023-07-03T02:43:58.040Z,75.69
2023-07-03T02:46:26.191Z,76.31
2023-07-03T02:48:55.281Z,75.32
2023-07-03T02:51:23.687Z,75.75
2023-07-03T02:53:51.362Z,75.54
2023-07-03T02:56:19.477Z,75.51
2023-07-03T02:58:46.877Z,76.82
2023-07-03T03:01:15.326Z,77.18
2023-07-03T03:03:42.794Z,76.69
2023-07-03T03:06:12.206Z,76.04
2023-07-03T03:08:39.691Z,75.79
2023-07-03T03:11:07.604Z,75.70
2023-07-03T03:13:35.194Z,75.48
2023-07-03T03:16:03.008Z,75.23
2023-07-03T03:18:30.506Z,75.02
2023-07-03T03:20:58.445Z,75.09
2023-07-03T03:23:27.485Z,74.75
2023-07-03T03:25:55.339Z,75.50
2023-07-03T03:28:25.518Z,75.86
2023-07-03T03:30:53.571Z,75.50
2023-07-03T03:33:21.089Z,75.88
2023-07-03T03:35:49.114Z,75.33
2023-07-03T03:38:16.874Z,75.01
2023-07-03T03:40:54.837Z,74.80
2023-07-03T03:43:22.495Z,75.38
2023-07-03T03:45:57.145Z,76.46
2023-07-03T03:48:25.889Z,77.04
2023-07-03T03:50:54.521Z,77.75
2023-07-03T03:53:22.507Z,77.55
2023-07-03T03:55:53.128Z,77.35
2023-07-03T03:58:22.160Z,76.60
2023-07-03T04:00:50.277Z,75.32
2023-07-03T04:03:18.324Z,75.62
2023-07-03T04:05:46.487Z,75.20
2023-07-03T04:08:14.050Z,75.75
2023-07-03T04:10:41.898Z,77.59
2023-07-03T04:13:11.607Z,78.02
2023-07-03T04:15:51.651Z,77.07
2023-07-03T04:18:20.481Z,76.17
2023-07-03T04:20:49.071Z,76.49
2023-07-03T04:23:16.930Z,77.83
2023-07-03T04:25:45.026Z,78.01
2023-07-03T04:28:17.106Z,77.74
2023-07-03T04:30:45.358Z,75.98
2023-07-03T04:33:13.003Z,74.47
2023-07-03T04:35:41.793Z,72.98
2023-07-03T04:38:09.641Z,73.93
2023-07-03T04:40:38.031Z,73.52
2023-07-03T04:43:05.558Z,73.36
2023-07-03T04:45:39.354Z,74.41
2023-07-03T04:48:06.930Z,75.56
2023-07-03T04:50:34.839Z,75.52
2023-07-03T04:53:02.601Z,76.20
2023-07-03T04:55:30.706Z,77.09
2023-07-03T04:57:59.228Z,78.22
2023-07-03T05:00:28.203Z,77.72
2023-07-03T05:02:59.043Z,75.87
2023-07-03T05:05:27.954Z,75.87
2023-07-03T05:07:57.964Z,74.25
2023-07-03T05:10:27.204Z,72.61
2023-07-03T05:12:54.771Z,71.86
2023-07-03T05:15:22.886Z,70.75
2023-07-03T05:17:51.408Z,72.26
2023-07-03T05:20:21.114Z,71.12
2023-07-03T05:22:48.595Z,71.35
2023-07-03T05:25:17.936Z,70.01
2023-07-03T05:27:47.037Z,68.82
2023-07-03T05:30:15.303Z,68.07
2023-07-03T05:32:42.876Z,67.47
2023-07-03T05:35:11.767Z,67.40
2023-07-03T05:37:40.893Z,67.17
2023-07-03T05:40:09.986Z,67.46
2023-07-03T05:42:37.785Z,67.71
2023-07-03T05:45:08.502Z,67.29
2023-07-03T05:47:36.622Z,67.10
2023-07-03T05:50:04.908Z,65.36
2023-07-03T05:52:32.320Z,64.30
2023-07-03T05:55:01.639Z,64.99
2023-07-03T05:57:29.286Z,64.44
2023-07-03T05:59:57.211Z,65.58
2023-07-03T06:02:24.663Z,62.31
2023-07-03T06:04:52.470Z,64.84
2023-07-03T06:07:20.020Z,59.84
2023-07-03T06:09:47.944Z,60.60
2023-07-03T06:12:17.011Z,56.35
2023-07-03T06:15:03.188Z,56.80
2023-07-03T06:17:49.299Z,56.59
2023-07-03T06:20:43.828Z,54.45
2023-07-03T06:23:19.114Z,53.79
2023-07-03T06:25:50.331Z,52.21
2023-07-03T06:28:25.448Z,52.39
2023-07-03T06:30:55.255Z,49.94
2023-07-03T06:33:38.057Z,50.91
2023-07-03T06:36:09.551Z,49.41
2023-07-03T06:38:37.380Z,48.81
2023-07-03T06:43:54.540Z,47.80
2023-07-03T06:46:25.036Z,46.08
2023-07-03T06:48:57.366Z,48.57
2023-07-03T06:51:36.411Z,47.49
2023-07-03T06:54:04.555Z,42.56
2023-07-03T06:56:32.711Z,43.42
2023-07-03T06:59:14.460Z,45.13
2023-07-03T07:01:54.243Z,44.58
2023-07-03T07:04:28.531Z,46.37
2023-07-03T07:07:06.336Z,43.23
2023-07-03T07:09:34.751Z,41.64
2023-07-03T07:12:03.119Z,45.13
2023-07-03T07:14:32.116Z,43.36
2023-07-03T07:17:03.091Z,44.04
2023-07-03T07:19:36.548Z,43.85
2023-07-03T07:22:07.142Z,45.23
2023-07-03T07:24:48.062Z,45.59
2023-07-03T07:27:24.935Z,42.75
2023-07-03T07:29:56.231Z,44.19
2023-07-03T07:32:24.213Z,44.09
2023-07-03T07:34:58.800Z,43.97
2023-07-03T07:37:29.482Z,45.06
2023-07-03T07:39:57.274Z,43.42
2023-07-03T07:42:25.135Z,46.67
2023-07-03T07:44:59.593Z,45.20
2023-07-03T07:47:31.556Z,43.42
2023-07-03T07:50:03.274Z,42.76
2023-07-03T07:52:35.649Z,44.86
2023-07-03T07:55:03.396Z,43.36
2023-07-03T07:57:31.484Z,46.58
2023-07-03T08:00:05.612Z,45.42
2023-07-03T08:02:33.931Z,41.05
2023-07-03T08:07:50.911Z,40.90
2023-07-03T08:10:20.849Z,42.97
2023-07-03T08:12:57.526Z,42.25
2023-07-03T08:15:28.517Z,42.54
2023-07-03T08:17:58.457Z,44.12
2023-07-03T08:20:26.157Z,42.00
2023-07-03T08:22:54.058Z,45.78
2023-07-03T08:25:21.735Z,43.26
2023-07-03T08:27:50.276Z,41.44
2023-07-03T08:30:20.431Z,41.12
2023-07-03T08:32:52.613Z,38.35
2023-07-03T08:37:51.459Z,39.97
2023-07-03T08:40:21.861Z,39.59
2023-07-03T08:42:52.944Z,40.50
2023-07-03T08:45:30.733Z,37.13
2023-07-03T08:48:02.912Z,40.37
2023-07-03T08:50:37.010Z,37.55
2023-07-03T08:53:07.079Z,39.67
2023-07-03T08:55:42.369Z,40.19
2023-07-03T08:58:10.508Z,42.48
2023-07-03T09:00:51.707Z,40.63
2023-07-03T09:03:31.674Z,40.60
2023-07-03T09:06:13.666Z,37.24
2023-07-03T09:08:58.968Z,39.95
2023-07-03T09:11:30.608Z,40.39
2023-07-03T09:14:02.679Z,39.16
2023-07-03T09:16:32.312Z,39.11
2023-07-03T09:19:18.195Z,39.03
2023-07-03T09:21:46.841Z,38.70
2023-07-03T09:24:22.425Z,40.38
2023-07-03T09:26:58.584Z,39.83
2023-07-03T09:29:28.455Z,40.69
2023-07-03T09:31:55.897Z,39.94
2023-07-03T09:34:25.604Z,40.00
2023-07-03T09:36:55.067Z,37.88
2023-07-03T09:39:24.328Z,37.29
2023-07-03T09:41:51.863Z,35.46
2023-07-03T09:44:23.304Z,37.07
2023-07-03T09:46:56.694Z,35.10
2023-07-03T09:49:27.120Z,38.63
2023-07-03T09:51:55.327Z,38.86
2023-07-03T09:54:24.846Z,40.90
2023-07-03T09:56:52.419Z,37.64
2023-07-03T09:59:20.339Z,38.51
2023-07-03T10:07:01.288Z,39.06
2023-07-03T10:12:07.536Z,38.23
2023-07-03T10:14:38.447Z,36.74
2023-07-03T10:17:06.849Z,36.40
2023-07-03T10:19:35.325Z,36.97
2023-07-03T10:22:04.965Z,37.38
2023-07-03T10:24:32.908Z,38.74
2023-07-03T10:27:01.674Z,36.57
2023-07-03T10:29:33.680Z,36.21
2023-07-03T10:32:07.555Z,36.01
2023-07-03T10:34:48.381Z,36.50
2023-07-03T10:37:19.879Z,35.35
2023-07-03T10:39:54.157Z,36.68
2023-07-03T10:42:30.772Z,36.90
2023-07-03T10:45:06.290Z,35.24
2023-07-03T10:47:47.173Z,36.59
2023-07-03T10:50:27.523Z,36.68
2023-07-03T10:53:06.378Z,39.37
2023-07-03T10:55:41.201Z,38.78
2023-07-03T10:58:16.373Z,37.21
2023-07-03T11:01:01.555Z,36.44
2023-07-03T11:03:43.592Z,36.00
2023-07-03T11:06:21.920Z,38.78
2023-07-03T11:08:55.126Z,35.41
2023-07-03T11:11:36.357Z,34.72
2023-07-03T11:14:09.985Z,33.03
2023-07-03T11:16:53.684Z,34.64
2023-07-03T11:25:05.111Z,37.87
2023-07-03T11:30:15.772Z,33.36
2023-07-03T11:32:45.269Z,34.32
2023-07-03T11:40:37.779Z,37.27
2023-07-03T11:46:02.155Z,35.62
2023-07-03T11:48:33.434Z,37.33
2023-07-03T11:51:09.463Z,34.54
2023-07-03T11:53:40.115Z,34.83
2023-07-03T11:56:36.916Z,35.28
2023-07-03T11:59:09.593Z,34.83
2023-07-03T12:01:37.499Z,33.69
2023-07-03T12:04:07.193Z,31.00
2023-07-03T12:06:48.750Z,33.74
2023-07-03T12:09:30.791Z,33.18
2023-07-03T12:12:20.388Z,32.68
2023-07-03T12:14:55.976Z,31.58
2023-07-03T12:17:29.809Z,30.62
2023-07-03T12:20:06.405Z,31.98
2023-07-03T12:22:38.562Z,30.79
2023-07-03T12:25:11.809Z,28.70
2023-07-03T12:27:41.253Z,29.81
2023-07-03T12:30:12.815Z,30.64
2023-07-03T12:32:46.771Z,31.92
2023-07-03T12:35:20.861Z,29.77
2023-07-03T12:37:50.907Z,29.03
2023-07-03T12:40:25.936Z,30.48
2023-07-03T12:42:57.484Z,31.87
2023-07-03T12:45:31.229Z,30.60
2023-07-03T12:48:09.389Z,30.49
2023-07-03T12:50:47.810Z,29.56
2023-07-03T12:53:16.568Z,31.58
2023-07-03T12:55:50.347Z,30.89
2023-07-03T12:58:33.181Z,31.03
2023-07-03T13:01:03.048Z,29.90
2023-07-03T13:03:41.803Z,27.95
2023-07-03T13:06:15.261Z,27.86
2023-07-03T13:08:46.295Z,30.41
2023-07-03T13:11:14.125Z,29.64
2023-07-03T13:13:43.625Z,30.30
2023-07-03T13:16:15.740Z,30.78
2023-07-03T13:18:58.837Z,31.74
2023-07-03T13:21:26.837Z,31.45
2023-07-03T13:23:54.605Z,30.13
2023-07-03T13:26:25.100Z,30.76
2023-07-03T13:28:56.583Z,30.58
2023-07-03T13:31:32.030Z,31.56
2023-07-03T13:34:09.774Z,30.40
2023-07-03T13:36:41.111Z,30.09
2023-07-03T13:39:12.396Z,29.42
2023-07-03T13:41:42.006Z,29.89
2023-07-03T13:44:18.238Z,30.20
2023-07-03T13:46:47.929Z,30.00
2023-07-03T13:49:15.883Z,29.67
2023-07-03T13:51:45.273Z,29.48
2023-07-03T13:54:13.903Z,30.47
2023-07-03T13:56:42.940Z,30.12
2023-07-03T13:59:14.344Z,29.07
2023-07-03T14:01:45.579Z,30.27
2023-07-03T14:04:13.349Z,32.36
2023-07-03T14:06:41.466Z,29.94
2023-07-03T14:09:09.715Z,29.73
2023-07-03T14:11:40.524Z,30.59
2023-07-03T14:14:10.257Z,31.55
2023-07-03T14:16:39.611Z,31.25
2023-07-03T14:19:07.852Z,30.06
2023-07-03T14:21:36.278Z,31.90
2023-07-03T14:24:04.156Z,30.36
2023-07-03T14:26:33.566Z,29.25
2023-07-03T14:29:01.259Z,29.99
2023-07-03T14:31:31.924Z,29.95
2023-07-03T14:34:01.040Z,28.76
2023-07-03T14:36:29.189Z,29.89
2023-07-03T14:38:56.929Z,31.11
2023-07-03T14:41:24.968Z,29.60
2023-07-03T14:43:52.654Z,30.47
2023-07-03T14:46:20.739Z,29.24
2023-07-03T14:48:48.264Z,31.01
2023-07-03T14:51:20.588Z,30.52
2023-07-03T14:53:48.121Z,30.66
2023-07-03T14:56:16.086Z,32.19
2023-07-03T14:58:43.599Z,30.37
2023-07-03T15:01:11.525Z,31.70
2023-07-03T15:03:40.948Z,30.17
2023-07-03T15:06:09.172Z,31.71
2023-07-03T15:08:38.069Z,31.73
2023-07-03T15:11:05.858Z,31.75
2023-07-03T15:13:33.599Z,31.95
2023-07-03T15:16:01.830Z,31.42
2023-07-03T15:18:29.419Z,33.28
2023-07-03T15:20:57.886Z,31.37
2023-07-03T15:23:28.038Z,31.72
2023-07-03T15:26:22.324Z,33.35
2023-07-03T15:28:57.677Z,32.08
2023-07-03T15:31:30.206Z,32.26
2023-07-03T15:34:04.434Z,31.52
2023-07-03T15:36:33.211Z,31.05
2023-07-03T15:39:06.111Z,32.05
2023-07-03T15:41:40.629Z,31.38
2023-07-03T15:44:09.570Z,32.19
2023-07-03T15:46:38.958Z,33.22
2023-07-03T15:49:07.394Z,32.91
2023-07-03T15:51:35.779Z,31.96
2023-07-03T15:54:03.494Z,33.46
2023-07-03T15:56:31.883Z,32.57
2023-07-03T15:59:04.443Z,33.14
2023-07-03T16:01:32.558Z,32.97
2023-07-03T16:04:01.775Z,33.36
2023-07-03T16:06:35.417Z,33.20
2023-07-03T16:09:03.301Z,33.01
2023-07-03T16:11:31.443Z,34.00
2023-07-03T16:13:59.156Z,34.08
2023-07-03T16:16:28.651Z,32.76
2023-07-03T16:18:58.050Z,33.65
2023-07-03T16:21:28.526Z,33.12
2023-07-03T16:23:58.714Z,32.61
2023-07-03T16:26:28.219Z,32.23
2023-07-03T16:28:56.753Z,32.39
2023-07-03T16:31:27.355Z,33.54
2023-07-03T16:33:58.143Z,33.11
2023-07-03T16:36:28.341Z,33.59
2023-07-03T16:38:57.287Z,33.39
2023-07-03T16:41:26.449Z,32.89
2023-07-03T16:43:56.202Z,34.30
2023-07-03T16:46:26.587Z,33.75
2023-07-03T16:48:57.542Z,34.08
2023-07-03T16:51:27.199Z,34.41
2023-07-03T16:53:55.545Z,35.42
2023-07-03T16:56:27.090Z,35.31
2023-07-03T16:58:58.496Z,34.12
2023-07-03T17:01:28.969Z,34.84
2023-07-03T17:03:58.396Z,34.47
2023-07-03T17:06:30.048Z,34.95
2023-07-03T17:08:57.636Z,34.57
2023-07-03T17:11:25.949Z,34.77
2023-07-03T17:13:56.412Z,34.88
2023-07-03T17:16:27.884Z,36.01
2023-07-03T17:18:55.602Z,36.28
2023-07-03T17:21:28.051Z,35.57
2023-07-03T17:23:59.753Z,36.17
2023-07-03T17:26:27.999Z,38.32
2023-07-03T17:28:55.754Z,37.46
2023-07-03T17:31:24.162Z,38.17
2023-07-03T17:33:51.890Z,37.92
2023-07-03T17:36:22.759Z,37.28
2023-07-03T17:38:52.849Z,38.52
2023-07-03T17:41:21.638Z,39.67
2023-07-03T17:43:49.307Z,41.83
2023-07-03T17:46:22.478Z,40.99
2023-07-03T17:49:00.249Z,37.99
2023-07-03T17:51:28.321Z,42.03
2023-07-03T17:54:00.446Z,44.17
2023-07-03T17:56:28.468Z,45.62
2023-07-03T17:58:59.247Z,45.04
2023-07-03T18:01:27.410Z,44.68
2023-07-03T18:03:55.009Z,45.70
2023-07-03T18:06:23.231Z,44.32
2023-07-03T18:08:56.138Z,44.30
2023-07-03T18:11:25.405Z,46.32
2023-07-03T18:13:55.135Z,47.45
2023-07-03T18:16:25.206Z,48.18
2023-07-03T18:18:52.650Z,49.08
2023-07-03T18:21:20.573Z,48.41
2023-07-03T18:23:48.066Z,49.41
2023-07-03T18:26:20.521Z,49.68
2023-07-03T18:28:49.497Z,45.84
2023-07-03T18:31:17.814Z,49.85
2023-07-03T18:33:47.308Z,50.07
2023-07-03T18:36:15.494Z,50.43
2023-07-03T18:38:43.137Z,51.05
2023-07-03T18:41:11.070Z,49.69
2023-07-03T18:43:41.374Z,50.17
2023-07-03T18:46:11.373Z,49.61
2023-07-03T18:48:45.793Z,52.77
2023-07-03T18:51:14.458Z,52.04
2023-07-03T18:53:42.517Z,49.82
2023-07-03T18:56:18.973Z,51.95
2023-07-03T18:58:46.494Z,50.96
2023-07-03T19:01:17.417Z,50.89
2023-07-03T19:03:45.125Z,51.80
2023-07-03T19:06:15.581Z,52.36
2023-07-03T19:08:43.324Z,52.00
2023-07-03T19:11:13.923Z,52.12
2023-07-03T19:13:41.529Z,52.89
2023-07-03T19:16:16.170Z,52.42
2023-07-03T19:18:43.779Z,52.59
2023-07-03T19:21:12.763Z,52.97
2023-07-03T19:23:40.418Z,53.06
2023-07-03T19:26:09.674Z,53.50
2023-07-03T19:28:38.962Z,53.56
2023-07-03T19:31:07.180Z,53.69
2023-07-03T19:33:36.547Z,53.31
2023-07-03T19:36:13.161Z,53.86
2023-07-03T19:38:44.637Z,54.07
2023-07-03T19:41:27.087Z,54.55
2023-07-03T19:44:00.534Z,55.39
2023-07-03T19:46:28.299Z,54.74
2023-07-03T19:48:57.760Z,55.04
2023-07-03T19:51:33.929Z,54.92
2023-07-03T19:54:07.100Z,54.36
2023-07-03T19:56:37.052Z,53.80
2023-07-03T19:59:05.007Z,54.12
2023-07-03T20:01:32.857Z,53.41
2023-07-03T20:04:02.937Z,53.37
2023-07-03T20:06:30.365Z,54.67
2023-07-03T20:08:58.361Z,54.29
2023-07-03T20:11:26.262Z,54.44
2023-07-03T20:13:54.358Z,54.32
2023-07-03T20:16:31.139Z,54.58
2023-07-03T20:19:06.859Z,54.82
2023-07-03T20:21:34.460Z,55.15
2023-07-03T20:24:06.848Z,54.95
2023-07-03T20:26:43.623Z,55.23
2023-07-03T20:29:15.296Z,55.07
2023-07-03T20:31:48.678Z,55.93
2023-07-03T20:34:30.681Z,56.04
2023-07-03T20:37:01.617Z,55.79
2023-07-03T20:39:37.115Z,56.51
2023-07-03T20:42:07.244Z,57.03
2023-07-03T20:44:41.583Z,55.81
2023-07-03T20:47:13.185Z,56.17
2023-07-03T20:49:43.799Z,57.19
2023-07-03T20:52:12.862Z,57.62
2023-07-03T20:54:40.987Z,56.56
2023-07-03T20:57:16.803Z,56.31
2023-07-03T20:59:49.245Z,56.81
2023-07-03T21:02:16.801Z,56.66
2023-07-03T21:04:46.196Z,55.79
2023-07-03T21:07:13.743Z,55.76
2023-07-03T21:09:44.713Z,55.65
2023-07-03T21:12:12.356Z,56.92
2023-07-03T21:14:40.656Z,55.89
2023-07-03T21:17:08.052Z,56.75
2023-07-03T21:19:36.054Z,56.68
2023-07-03T21:22:05.686Z,56.23
2023-07-03T21:24:33.606Z,56.16
2023-07-03T21:27:01.386Z,56.33
2023-07-03T21:29:29.284Z,57.76
2023-07-03T21:31:56.827Z,57.35
2023-07-03T21:34:24.840Z,57.40
2023-07-03T21:36:52.263Z,58.25
2023-07-03T21:39:21.776Z,58.81
2023-07-03T21:41:49.271Z,56.09
2023-07-03T21:44:19.390Z,57.84
2023-07-03T21:46:46.790Z,58.71
2023-07-03T21:49:16.733Z,58.88
2023-07-03T21:51:44.303Z,58.61
2023-07-03T21:54:12.660Z,59.34
2023-07-03T21:56:41.833Z,59.58
2023-07-03T21:59:09.669Z,60.36
2023-07-03T22:01:39.293Z,61.26
2023-07-03T22:04:09.022Z,61.42
2023-07-03T22:06:36.691Z,61.95
2023-07-03T22:09:05.013Z,62.59
2023-07-03T22:11:32.647Z,62.97
2023-07-03T22:14:02.011Z,63.40
2023-07-03T22:16:29.604Z,61.47
2023-07-03T22:18:57.506Z,61.99
2023-07-03T22:21:25.404Z,62.15
2023-07-03T22:23:53.268Z,62.33
2023-07-03T22:26:20.992Z,61.63
2023-07-03T22:28:48.887Z,62.33
2023-07-03T22:31:17.789Z,61.63
2023-07-03T22:33:45.842Z,62.38
2023-07-03T22:36:13.813Z,62.38
2023-07-03T22:38:44.689Z,61.98
2023-07-03T22:41:12.064Z,62.04
2023-07-03T22:43:40.114Z,61.99
2023-07-03T22:46:09.262Z,62.85
2023-07-03T22:48:40.445Z,63.57
2023-07-03T22:51:08.165Z,63.51
2023-07-03T22:53:36.122Z,63.59
2023-07-03T22:56:04.035Z,64.05
2023-07-03T22:58:34.388Z,64.63
2023-07-03T23:01:07.091Z,64.98
2023-07-03T23:03:34.952Z,65.16
2023-07-03T23:06:04.731Z,65.10
2023-07-03T23:08:33.054Z,65.51
2023-07-03T23:11:01.359Z,64.95
2023-07-03T23:13:29.235Z,65.73
2023-07-03T23:15:59.553Z,65.40
2023-07-03T23:18:28.060Z,65.46
2023-07-03T23:20:57.649Z,65.10
2023-07-03T23:23:27.855Z,63.81
2023-07-03T23:25:56.321Z,63.94
2023-07-03T23:28:27.035Z,64.26
2023-07-03T23:30:55.422Z,64.11
2023-07-03T23:33:23.525Z,63.94
2023-07-03T23:35:51.164Z,64.02
2023-07-03T23:38:19.248Z,64.59
2023-07-03T23:40:48.368Z,64.58
2023-07-03T23:43:16.290Z,64.42
2023-07-03T23:45:43.800Z,63.88
2023-07-03T23:48:12.127Z,63.91
2023-07-03T23:50:39.840Z,65.07
2023-07-03T23:53:08.028Z,64.38
2023-07-03T23:55:35.874Z,63.46
2023-07-03T23:58:05.148Z,63.15
